North Crossroads, Mississippi
Current Conditions -  °F | °C
As of 6:55 AM on Friday 19 Dec 2014 (Local Time) from KCRX Reporting Station
Overcast Overcast  
Wind Chill: 37°   Ceiling: 3600
Heat Index: 41°   Visibility: 10mi
Dew Point: 36°   Wind: 6mph
Humidity: 81%   Direction: 20°NNE
Pressure: 30.23"   Gusts: NA
Location:  34.8106°N, 88.1999°W
Report Text: KCRX 191255Z AUTO 02005KT 10SM OVC036 05/02 A3023 RMK AO2
Loading
Personal Weather Stations






























Interactive Weather Map New forecast layout! Learn more

10-Day Weather Forecast

Advertisements
Track Severe Weather on mobile